• Join FlightAware (Why Join?)
  • Login
  • US Flag 
12:49PM EDT


 

Airport Tracker/Info


-or-


 

Live Flight TrackerFlight Track Log ✈ AAY484 ✈ 30-Jan-2014 ✈ KLAS - KGFK

Flight Track Log - Related Links

Times and Time Zones

All times are in EST time to prevent confusion due to time zone crossing. See the AAY484 flight status page for this flight to view local times or setup timezone preferences in your user account.

Time Position Orientation Groundspeed Altitude Reporting Facility
EST Latitude Longitude Course Direction KTS MPH feet Rate Location/Type
09:52AM 36.0758 -115.1764 274° West 178 205 3,200  Level Los Angeles Center
09:52AM 36.0778 -115.2156 274° West 190 219 4,100 1,620 Climbing Los Angeles Center
09:53AM 36.0772 -115.2533 269° West 207 238 5,100 2,580 Climbing Los Angeles Center
09:53AM 36.0914 -115.2883 297° West 224 258 6,700 2,940 Climbing Los Angeles Center
09:54AM 36.1272 -115.2958 350° North 248 285 8,100 2,400 Climbing Los Angeles Center
09:54AM 36.1667 -115.2769 21° North 294 338 9,200 1,980 Climbing Los Angeles Center
09:55AM 36.1853 -115.2333 62° Northeast 313 360 10,200 1,560 Climbing Los Angeles Center
09:56AM 36.1964 -115.1058 84° East 361 415 11,700 1,560 Climbing Los Angeles Center
09:57AM 36.1967 -114.9681 90° East 401 461 13,700 1,800 Climbing Los Angeles Center
09:58AM 36.2011 -114.7989 88° East 435 501 15,800 1,800 Climbing Los Angeles Center
09:59AM 36.2881 -114.6936 44° Northeast 438 504 17,500 1,860 Climbing Los Angeles Center
10:00AM 36.3886 -114.5981 37° Northeast 452 520 19,700 1,920 Climbing Los Angeles Center
10:01AM 36.4847 -114.4353 54° Northeast 488 562 21,500 2,100 Climbing Los Angeles Center
10:02AM 36.5656 -114.2981 54° Northeast 491 565 24,100 2,100 Climbing Los Angeles Center
10:03AM 36.6478 -114.1581 54° Northeast 480 552 25,900 1,260 Climbing Los Angeles Center
10:04AM 36.7397 -114.0400 46° Northeast 477 549 26,800 600 Climbing Los Angeles Center
10:06AM 36.8764 -113.9511 27° Northeast 479 551 27,500 1,140 Climbing Los Angeles Center
10:07AM 37.0286 -113.8558 27° Northeast 487 560 29,700 1,560 Climbing Los Angeles Center
10:08AM 37.1500 -113.7825 26° Northeast 484 557 30,800 600 Climbing Los Angeles Center
10:09AM 37.2719 -113.7058 27° Northeast 487 560 31,000 60 Climbing Los Angeles Center
10:10AM 37.3964 -113.6281 26° Northeast 496 571 31,000 -60 Level Los Angeles Center
10:11AM 37.5200 -113.5503 27° Northeast 495 570 30,900  Descending Los Angeles Center
10:12AM 37.6697 -113.4550 27° Northeast 498 573 31,000  Climbing Los Angeles Center
10:13AM 37.7947 -113.3764 26° Northeast 498 573 31,000  Level Los Angeles Center
10:14AM 37.9197 -113.2967 27° Northeast 499 574 31,000 180 Level Los Angeles Center
10:15AM 38.0439 -113.2131 28° Northeast 501 577 31,400 720 Climbing Los Angeles Center
10:16AM 38.1750 -113.0664 41° Northeast 520 598 32,700 660 Climbing Salt Lake Center
10:17AM 38.2797 -112.9364 44° Northeast 525 604 33,000 120 Climbing Salt Lake Center
10:18AM 38.3844 -112.8064 44° Northeast 525 604 33,000  Level Salt Lake Center
10:19AM 38.4867 -112.6742 45° Northeast 523 602 33,000  Level Salt Lake Center
10:20AM 38.6097 -112.5161 45° Northeast 523 602 33,000  Level Salt Lake Center
10:21AM 38.7136 -112.3844 45° Northeast 525 604 33,000  Level Salt Lake Center
10:22AM 38.8167 -112.2528 45° Northeast 524 603 33,000  Level Salt Lake Center
10:23AM 38.9189 -112.1208 45° Northeast 523 602 33,000  Level Salt Lake Center
10:24AM 39.0217 -111.9872 45° Northeast 525 604 33,000 -60 Level Salt Lake Center
10:25AM 39.1233 -111.8533 46° Northeast 525 604 32,900  Descending Salt Lake Center
10:26AM 39.2261 -111.7203 45° Northeast 524 603 33,000  Climbing Salt Lake Center
10:27AM 39.3336 -111.5769 46° Northeast 526 605 33,000  Level Salt Lake Center
10:28AM 39.4353 -111.4444 45° Northeast 523 602 33,000  Level Salt Lake Center
10:29AM 39.5358 -111.3075 46° Northeast 525 604 33,000 -60 Level Salt Lake Center
10:30AM 39.6478 -111.1594 45° Northeast 520 598 32,900  Descending Salt Lake Center
10:31AM 39.7442 -111.0314 46° Northeast 518 596 33,000  Climbing Salt Lake Center
10:32AM 39.8569 -110.8794 46° Northeast 521 600 33,000  Level Salt Lake Center
10:33AM 39.9544 -110.7478 46° Northeast 523 602 33,000 -60 Level Salt Lake Center
10:35AM 40.0661 -110.5947 46° Northeast 523 602 32,900  Descending Salt Lake Center
10:36AM 40.1617 -110.4647 46° Northeast 519 597 33,000  Climbing Salt Lake Center
10:37AM 40.2578 -110.3344 46° Northeast 518 596 33,000 -60 Level Salt Lake Center
10:38AM 40.3689 -110.1792 47° Northeast 521 600 32,900  Descending Salt Lake Center
10:39AM 40.4647 -110.0458 47° Northeast 523 602 33,000  Climbing Salt Lake Center
10:40AM 40.5769 -109.8908 46° Northeast 524 603 33,000 -60 Level Salt Lake Center
10:41AM 40.6722 -109.7556 47° Northeast 524 603 32,900 -60 Descending Salt Lake Center
10:42AM 40.7683 -109.6217 47° Northeast 525 604 32,900  Level Salt Lake Center
10:43AM 40.8756 -109.4703 47° Northeast 523 602 33,000  Climbing Salt Lake Center
10:44AM 40.9703 -109.3364 47° Northeast 523 602 33,000  Level Salt Lake Center
10:45AM 41.0811 -109.1761 47° Northeast 529 609 33,000  Level Salt Lake Center
10:46AM 41.1764 -109.0406 47° Northeast 531 611 33,000  Level Salt Lake Center
10:47AM 41.2853 -108.8836 47° Northeast 525 604 33,000  Level Salt Lake Center
10:48AM 41.3781 -108.7503 47° Northeast 521 600 33,000  Level Salt Lake Center
10:49AM 41.4858 -108.5933 47° Northeast 519 597 33,000  Level Salt Lake Center
10:50AM 41.5794 -108.4569 47° Northeast 521 600 33,000  Level Salt Lake Center
10:51AM 41.6867 -108.2972 48° Northeast 519 597 33,000  Level Salt Lake Center
10:52AM 41.7794 -108.1606 48° Northeast 519 597 33,000  Level Salt Lake Center
10:53AM 41.8889 -108.0017 47° Northeast 520 598 33,000  Level Salt Lake Center
10:54AM 41.9792 -107.8622 49° Northeast 519 597 33,000  Level Salt Lake Center
10:55AM 42.0861 -107.7042 48° Northeast 514 592 33,000  Level Salt Lake Center
10:56AM 42.1939 -107.5433 48° Northeast 517 595 33,000  Level Denver Center
10:57AM 42.2850 -107.4014 49° Northeast 522 601 33,000  Level Denver Center
10:58AM 42.3756 -107.2642 48° Northeast 516 594 33,000  Level Salt Lake Center
10:59AM 42.4675 -107.1258 48° Northeast 517 595 33,000 -60 Level Salt Lake Center
11:00AM 42.5889 -106.9383 49° Northeast 518 596 32,900  Descending Denver Center
11:01AM 42.6742 -106.8092 48° Northeast 516 594 33,000  Climbing Denver Center
11:03AM 42.7792 -106.6439 49° Northeast 517 595 33,000  Level Denver Center
11:04AM 42.9014 -106.4553 48° Northeast 519 597 33,000  Level Denver Center
11:05AM 42.9917 -106.3131 49° Northeast 518 596 33,000  Level Denver Center
11:06AM 43.0817 -106.1697 49° Northeast 518 596 33,000 -60 Level Denver Center
11:07AM 43.1861 -106.0042 49° Northeast 513 590 32,900  Descending Denver Center
11:08AM 43.2758 -105.8608 49° Northeast 514 592 33,100 720 Climbing Denver Center
11:09AM 43.3800 -105.6922 50° Northeast 517 595 34,500 900 Climbing Denver Center
11:10AM 43.4678 -105.5519 49° Northeast 507 583 35,000 240 Climbing Denver Center
11:11AM 43.5697 -105.3850 50° Northeast 508 585 35,000  Level Denver Center
11:12AM 43.6572 -105.2417 50° Northeast 508 585 35,000 -60 Level Denver Center
11:13AM 43.7606 -105.0722 50° Northeast 512 589 34,900  Descending Denver Center
11:14AM 43.8486 -104.9256 50° Northeast 515 593 35,000  Climbing Denver Center
11:15AM 43.9361 -104.7808 50° Northeast 512 589 34,900  Descending Denver Center
11:16AM 44.0372 -104.6108 50° Northeast 511 588 35,000  Climbing Denver Center
11:17AM 44.1239 -104.4672 50° Northeast 508 585 35,000 -60 Level Denver Center
11:18AM 44.2236 -104.2992 50° Northeast 504 580 34,900  Descending Denver Center
11:19AM 44.3067 -104.1575 51° Northeast 497 572 35,000  Climbing Denver Center
11:20AM 44.4044 -103.9919 50° Northeast 494 568 35,000  Level Denver Center
11:21AM 44.4872 -103.8500 51° Northeast 492 566 35,000 -60 Level Denver Center
11:22AM 44.5831 -103.6822 51° Northeast 493 567 34,900  Descending Denver Center
11:23AM 44.6664 -103.5394 51° Northeast 494 568 35,000  Climbing Denver Center
11:24AM 44.7461 -103.4000 51° Northeast 494 568 35,000  Level Denver Center
11:25AM 44.8489 -103.2200 51° Northeast 492 566 35,000  Level Denver Center
11:26AM 44.9194 -103.1014 50° Northeast 493 567 35,000  Level Minneapolis Center
11:27AM 45.0047 -102.9494 52° Northeast 493 567 35,000 -60 Level Minneapolis Center
11:28AM 45.0892 -102.7978 52° Northeast 493 567 34,900  Descending Minneapolis Center
11:29AM 45.1725 -102.6506 51° Northeast 488 562 35,000  Climbing Minneapolis Center
11:30AM 45.2536 -102.5042 52° Northeast 480 552 35,000  Level Minneapolis Center
11:31AM 45.3361 -102.3539 52° Northeast 480 552 35,000  Level Minneapolis Center
11:32AM 45.4344 -102.1753 52° Northeast 480 552 35,000  Level Minneapolis Center
11:33AM 45.5164 -102.0253 52° Northeast 480 552 35,000 -60 Level Minneapolis Center
11:34AM 45.5978 -101.8753 52° Northeast 480 552 34,900  Descending Minneapolis Center
11:35AM 45.6783 -101.7267 52° Northeast 479 551 35,000  Climbing Minneapolis Center
11:36AM 45.7589 -101.5775 52° Northeast 478 550 34,900 -60 Descending Minneapolis Center
11:37AM 45.8397 -101.4267 52° Northeast 477 549 34,900  Level Minneapolis Center
11:38AM 45.9189 -101.2761 53° Northeast 477 549 35,000  Climbing Minneapolis Center
11:39AM 45.9989 -101.1275 52° Northeast 475 547 35,000  Level Minneapolis Center
11:41AM 46.0775 -100.9758 53° Northeast 474 545 35,000  Level Minneapolis Center
11:42AM 46.1714 -100.7961 53° Northeast 473 544 35,000  Level Minneapolis Center
11:43AM 46.2500 -100.6461 53° Northeast 473 544 35,000  Level Minneapolis Center
11:44AM 46.3311 -100.4900 53° Northeast 473 544 35,000  Level Minneapolis Center
11:45AM 46.4097 -100.3350 54° Northeast 474 545 35,000 -60 Level Minneapolis Center
11:46AM 46.4897 -100.1781 53° Northeast 478 550 34,900 -60 Descending Minneapolis Center
11:47AM 46.5728 -100.0147 53° Northeast 479 551 34,900  Level Minneapolis Center
11:48AM 46.6508 -99.8581 54° Northeast 479 551 34,900  Level Minneapolis Center
11:49AM 46.7303 -99.7036 53° Northeast 479 551 34,900  Level Minneapolis Center
11:50AM 46.8092 -99.5447 54° Northeast 480 552 34,900 -780 Level Minneapolis Center
11:51AM 46.8878 -99.3872 54° Northeast 481 554 33,300 -2,400 Descending Minneapolis Center
11:52AM 46.9828 -99.1972 54° Northeast 481 554 30,100 -2,280 Descending Minneapolis Center
11:53AM 47.0583 -99.0414 55° Northeast 475 547 28,700 -1,620 Descending Minneapolis Center
11:54AM 47.1311 -98.8956 54° Northeast 453 521 26,800 -1,920 Descending Minneapolis Center
11:55AM 47.2014 -98.7508 54° Northeast 440 506 24,800 -1,920 Descending Minneapolis Center
11:56AM 47.2703 -98.6083 54° Northeast 433 498 22,900 -2,100 Descending Minneapolis Center
11:57AM 47.3372 -98.4703 54° Northeast 422 486 20,500 -2,280 Descending Minneapolis Center
11:58AM 47.4039 -98.3336 54° Northeast 414 476 18,300 -2,220 Descending Minneapolis Center
11:59AM 47.4803 -98.1722 55° Northeast 404 465 16,000 -1,980 Descending Minneapolis Center
11:59AM 47.4944 -98.1439 53° Northeast 385 443 15,700 -1,860 Descending Minneapolis Center
12:00PM 47.5389 -98.0453 56° Northeast 390 449 14,100 -2,160 Descending Minneapolis Center
12:00PM 47.5494 -98.0247 53° Northeast 362 417 13,800 -2,160 Descending Minneapolis Center
12:01PM 47.5725 -97.9036 74° East 366 421 11,900 -2,160 Descending Minneapolis Center
12:01PM 47.5847 -97.8650 65° Northeast 359 413 11,400 -1,260 Descending Minneapolis Center
12:02PM 47.6053 -97.7658 73° East 353 406 10,600 -900 Descending Minneapolis Center
12:02PM 47.6103 -97.7469 69° East 345 397 10,600 -1,320 Level Minneapolis Center
12:03PM 47.6306 -97.6458 73° East 328 377 9,300 -1,320 Descending Minneapolis Center
12:03PM 47.6339 -97.6350 65° Northeast 285 328 9,300 -1,860 Level Minneapolis Center
12:04PM 47.6517 -97.5408 74° East 288 331 7,400 -2,160 Descending Minneapolis Center
12:04PM 47.6550 -97.5172 78° East 251 289 6,900 -2,340 Descending Minneapolis Center
12:05PM 47.6742 -97.4333 71° East 262 302 5,000 -2,100 Descending Minneapolis Center
12:05PM 47.6772 -97.4147 76° East 246 283 4,800 -840 Descending Minneapolis Center
12:06PM 47.6958 -97.3247 73° East 237 273 4,000 -720 Descending Minneapolis Center
12:07PM 47.7114 -97.2486 73° East 230 265 3,500 -600 Descending Minneapolis Center
12:07PM 47.7144 -97.2350 72° East 222 255 3,400 -540 Descending Minneapolis Center
12:08PM 47.7467 -97.2022 34° Northeast 193 222 3,000 -420 Descending Minneapolis Center
12:08PM 47.7575 -97.1908 35° Northeast 164 189 3,000  Level Minneapolis Center
12:09PM 47.7903 -97.1836 North 157 181 3,000  Level Minneapolis Center
12:09PM 47.7925 -97.1822 23° Northeast 121 139 3,000  Level Minneapolis Center
12:10PM 47.8322 -97.1819 360° North 131 151 3,000 -360 Level Minneapolis Center
12:11PM 47.8622 -97.1831 359° North 135 155 2,400 -600 Descending Minneapolis Center
12:11PM 47.8636 -97.1833 352° North 123 142 2,400 -720 Level Minneapolis Center
12:12PM 47.8933 -97.1825 North 124 143 1,700 -720 Descending Minneapolis Center
12:12PM 47.8969 -97.1811 14° North 110 127 1,700 -660 Level Minneapolis Center
12:13PM 47.9264 -97.1825 358° North 119 137 1,100 -660 Descending Minneapolis Center
12:13PM 47.9250 -97.1833 202° Southwest 120 138 1,100  Level Minneapolis Center
12:15PM 47.9333 -97.1667 32° Northeast  Level FlightAware Approximate